Terminal Aerodrome Forecast
Issued by NWS Northern Indiana

Home | Current Version | Previous Version | Text Only | Print | Product List | Glossary Off
Versions: 1 2 3 4 5 6 7 8 9 10 11 12

285
FTUS43 KIWX 241120
TAFFWA
TAF
KFWA 241120Z 2412/2512 07007KT P6SM OVC015
     FM241600 08008KT P6SM BKN025
     FM242100 08007KT P6SM SCT080=

USA.gov is the U.S. government's official web portal to all federal, state and local government web resources and services.